sensor_id;sensor_type;location;lat;lon;timestamp;P1;durP1;ratioP1;P2;durP2;ratioP2
39300;SDS011;25019;42.626;23.380;2022-09-09T00:07:03;11.17;;;10.07;;
39300;SDS011;25019;42.626;23.380;2022-09-09T00:09:31;10.70;;;9.37;;
39300;SDS011;25019;42.626;23.380;2022-09-09T00:12:11;11.73;;;10.07;;
39300;SDS011;25019;42.626;23.380;2022-09-09T00:17:30;10.57;;;9.57;;
39300;SDS011;25019;42.626;23.380;2022-09-09T00:20:05;11.70;;;9.43;;
39300;SDS011;25019;42.626;23.380;2022-09-09T00:22:50;10.40;;;9.37;;
39300;SDS011;25019;42.626;23.380;2022-09-09T00:28:10;10.80;;;9.43;;
39300;SDS011;25019;42.626;23.380;2022-09-09T00:30:43;9.70;;;8.30;;
39300;SDS011;25019;42.626;23.380;2022-09-09T00:33:12;9.73;;;8.43;;
39300;SDS011;25019;42.626;23.380;2022-09-09T00:35:50;9.93;;;8.77;;
39300;SDS011;25019;42.626;23.380;2022-09-09T00:43:38;9.90;;;8.90;;
39300;SDS011;25019;42.626;23.380;2022-09-09T00:46:10;10.80;;;9.03;;
39300;SDS011;25019;42.626;23.380;2022-09-09T00:48:48;10.07;;;9.07;;
39300;SDS011;25019;42.626;23.380;2022-09-09T00:54:22;10.00;;;9.00;;
39300;SDS011;25019;42.626;23.380;2022-09-09T00:59:56;9.80;;;8.77;;
39300;SDS011;25019;42.626;23.380;2022-09-09T01:02:44;9.50;;;8.50;;
39300;SDS011;25019;42.626;23.380;2022-09-09T01:05:45;11.20;;;9.10;;
39300;SDS011;25019;42.626;23.380;2022-09-09T01:08:36;9.37;;;8.47;;
39300;SDS011;25019;42.626;23.380;2022-09-09T01:11:25;9.33;;;8.43;;
39300;SDS011;25019;42.626;23.380;2022-09-09T01:14:11;10.43;;;9.43;;
39300;SDS011;25019;42.626;23.380;2022-09-09T01:16:58;10.50;;;9.40;;
39300;SDS011;25019;42.626;23.380;2022-09-09T01:25:19;10.47;;;9.23;;
39300;SDS011;25019;42.626;23.380;2022-09-09T01:27:59;9.67;;;8.73;;
39300;SDS011;25019;42.626;23.380;2022-09-09T01:30:29;10.80;;;9.73;;
39300;SDS011;25019;42.626;23.380;2022-09-09T01:33:03;10.43;;;9.30;;
39300;SDS011;25019;42.626;23.380;2022-09-09T01:37:59;10.10;;;9.17;;
39300;SDS011;25019;42.626;23.380;2022-09-09T01:40:25;9.87;;;8.87;;
39300;SDS011;25019;42.626;23.380;2022-09-09T01:42:53;10.17;;;9.27;;
39300;SDS011;25019;42.626;23.380;2022-09-09T01:45:19;10.47;;;9.47;;
39300;SDS011;25019;42.626;23.380;2022-09-09T01:47:47;10.27;;;9.37;;
39300;SDS011;25019;42.626;23.380;2022-09-09T01:50:42;10.47;;;9.43;;
39300;SDS011;25019;42.626;23.380;2022-09-09T01:53:09;10.13;;;9.23;;
39300;SDS011;25019;42.626;23.380;2022-09-09T01:55:37;10.63;;;9.57;;
39300;SDS011;25019;42.626;23.380;2022-09-09T01:58:11;10.57;;;9.47;;
39300;SDS011;25019;42.626;23.380;2022-09-09T02:01:06;10.13;;;9.13;;
39300;SDS011;25019;42.626;23.380;2022-09-09T02:03:44;10.50;;;9.50;;
39300;SDS011;25019;42.626;23.380;2022-09-09T02:08:49;12.47;;;9.40;;
39300;SDS011;25019;42.626;23.380;2022-09-09T02:11:18;11.73;;;9.93;;
39300;SDS011;25019;42.626;23.380;2022-09-09T02:14:04;10.83;;;9.20;;
39300;SDS011;25019;42.626;23.380;2022-09-09T02:19:16;9.77;;;8.77;;
39300;SDS011;25019;42.626;23.380;2022-09-09T02:22:21;9.90;;;8.90;;
39300;SDS011;25019;42.626;23.380;2022-09-09T02:24:50;8.77;;;7.97;;
39300;SDS011;25019;42.626;23.380;2022-09-09T02:27:23;9.50;;;8.60;;
39300;SDS011;25019;42.626;23.380;2022-09-09T02:29:50;12.67;;;9.13;;
39300;SDS011;25019;42.626;23.380;2022-09-09T02:32:27;11.23;;;10.07;;
39300;SDS011;25019;42.626;23.380;2022-09-09T02:34:58;10.27;;;9.10;;
39300;SDS011;25019;42.626;23.380;2022-09-09T02:37:29;12.03;;;9.47;;
39300;SDS011;25019;42.626;23.380;2022-09-09T02:40:04;10.77;;;8.90;;
39300;SDS011;25019;42.626;23.380;2022-09-09T02:42:38;9.83;;;8.83;;
39300;SDS011;25019;42.626;23.380;2022-09-09T02:45:16;12.27;;;10.00;;
39300;SDS011;25019;42.626;23.380;2022-09-09T02:47:51;12.00;;;10.20;;
39300;SDS011;25019;42.626;23.380;2022-09-09T02:50:40;11.10;;;10.00;;
39300;SDS011;25019;42.626;23.380;2022-09-09T02:53:16;10.67;;;9.57;;
39300;SDS011;25019;42.626;23.380;2022-09-09T02:55:47;10.00;;;9.00;;
39300;SDS011;25019;42.626;23.380;2022-09-09T02:58:37;10.03;;;9.03;;
39300;SDS011;25019;42.626;23.380;2022-09-09T03:01:05;11.57;;;10.23;;
39300;SDS011;25019;42.626;23.380;2022-09-09T03:03:31;12.10;;;10.23;;
39300;SDS011;25019;42.626;23.380;2022-09-09T03:05:59;12.90;;;11.60;;
39300;SDS011;25019;42.626;23.380;2022-09-09T03:08:26;12.33;;;11.13;;
39300;SDS011;25019;42.626;23.380;2022-09-09T03:10:53;12.03;;;10.70;;
39300;SDS011;25019;42.626;23.380;2022-09-09T03:13:20;15.03;;;11.87;;
39300;SDS011;25019;42.626;23.380;2022-09-09T03:15:47;14.03;;;12.73;;
39300;SDS011;25019;42.626;23.380;2022-09-09T03:18:15;14.33;;;12.50;;
39300;SDS011;25019;42.626;23.380;2022-09-09T03:20:43;14.20;;;12.70;;
39300;SDS011;25019;42.626;23.380;2022-09-09T03:23:09;15.23;;;12.33;;
39300;SDS011;25019;42.626;23.380;2022-09-09T03:25:35;14.13;;;12.53;;
39300;SDS011;25019;42.626;23.380;2022-09-09T03:28:01;14.00;;;12.50;;
39300;SDS011;25019;42.626;23.380;2022-09-09T03:30:27;14.93;;;13.23;;
39300;SDS011;25019;42.626;23.380;2022-09-09T03:32:55;15.23;;;13.50;;
39300;SDS011;25019;42.626;23.380;2022-09-09T03:35:25;15.07;;;13.23;;
39300;SDS011;25019;42.626;23.380;2022-09-09T03:37:51;15.00;;;12.73;;
39300;SDS011;25019;42.626;23.380;2022-09-09T03:40:17;14.23;;;12.63;;
39300;SDS011;25019;42.626;23.380;2022-09-09T03:42:45;14.33;;;12.83;;
39300;SDS011;25019;42.626;23.380;2022-09-09T03:45:10;12.60;;;11.30;;
39300;SDS011;25019;42.626;23.380;2022-09-09T03:47:38;13.57;;;12.20;;
39300;SDS011;25019;42.626;23.380;2022-09-09T03:50:06;12.80;;;11.60;;
39300;SDS011;25019;42.626;23.380;2022-09-09T03:52:39;13.57;;;11.70;;
39300;SDS011;25019;42.626;23.380;2022-09-09T03:55:12;13.80;;;12.33;;
39300;SDS011;25019;42.626;23.380;2022-09-09T03:57:37;15.10;;;12.63;;
39300;SDS011;25019;42.626;23.380;2022-09-09T04:00:07;15.27;;;13.13;;
39300;SDS011;25019;42.626;23.380;2022-09-09T04:02:43;13.57;;;12.20;;
39300;SDS011;25019;42.626;23.380;2022-09-09T04:05:12;13.70;;;12.40;;
39300;SDS011;25019;42.626;23.380;2022-09-09T04:07:41;13.70;;;12.40;;
39300;SDS011;25019;42.626;23.380;2022-09-09T04:10:08;14.10;;;12.13;;
39300;SDS011;25019;42.626;23.380;2022-09-09T04:12:36;13.83;;;12.30;;
39300;SDS011;25019;42.626;23.380;2022-09-09T04:15:02;15.00;;;11.90;;
39300;SDS011;25019;42.626;23.380;2022-09-09T04:17:28;13.03;;;11.73;;
39300;SDS011;25019;42.626;23.380;2022-09-09T04:19:54;17.27;;;12.43;;
39300;SDS011;25019;42.626;23.380;2022-09-09T04:22:21;14.47;;;11.80;;
39300;SDS011;25019;42.626;23.380;2022-09-09T04:24:48;12.23;;;10.10;;
39300;SDS011;25019;42.626;23.380;2022-09-09T04:27:14;11.57;;;10.37;;
39300;SDS011;25019;42.626;23.380;2022-09-09T04:29:40;12.03;;;10.00;;
39300;SDS011;25019;42.626;23.380;2022-09-09T04:32:06;11.47;;;10.17;;
39300;SDS011;25019;42.626;23.380;2022-09-09T04:34:32;11.83;;;9.80;;
39300;SDS011;25019;42.626;23.380;2022-09-09T04:36:58;10.20;;;9.17;;
39300;SDS011;25019;42.626;23.380;2022-09-09T04:39:26;11.70;;;8.60;;
39300;SDS011;25019;42.626;23.380;2022-09-09T04:41:51;9.07;;;8.17;;
39300;SDS011;25019;42.626;23.380;2022-09-09T04:44:19;8.87;;;7.97;;
39300;SDS011;25019;42.626;23.380;2022-09-09T04:46:45;7.43;;;6.80;;
39300;SDS011;25019;42.626;23.380;2022-09-09T04:49:12;9.03;;;7.40;;
39300;SDS011;25019;42.626;23.380;2022-09-09T04:51:37;10.03;;;7.93;;
39300;SDS011;25019;42.626;23.380;2022-09-09T04:54:04;12.80;;;8.27;;
39300;SDS011;25019;42.626;23.380;2022-09-09T04:56:31;9.20;;;7.87;;
39300;SDS011;25019;42.626;23.380;2022-09-09T04:58:58;10.83;;;7.90;;
39300;SDS011;25019;42.626;23.380;2022-09-09T05:01:34;11.33;;;7.50;;
39300;SDS011;25019;42.626;23.380;2022-09-09T05:04:03;8.03;;;7.33;;
39300;SDS011;25019;42.626;23.380;2022-09-09T05:06:31;10.37;;;7.37;;
39300;SDS011;25019;42.626;23.380;2022-09-09T05:08:58;9.50;;;7.07;;
39300;SDS011;25019;42.626;23.380;2022-09-09T05:11:29;8.13;;;6.10;;
39300;SDS011;25019;42.626;23.380;2022-09-09T05:14:25;8.67;;;6.67;;
39300;SDS011;25019;42.626;23.380;2022-09-09T05:16:51;8.53;;;6.13;;
39300;SDS011;25019;42.626;23.380;2022-09-09T05:19:17;8.33;;;5.93;;
39300;SDS011;25019;42.626;23.380;2022-09-09T05:21:48;7.37;;;6.20;;
39300;SDS011;25019;42.626;23.380;2022-09-09T05:24:17;9.33;;;6.20;;
39300;SDS011;25019;42.626;23.380;2022-09-09T05:26:44;6.67;;;6.00;;
39300;SDS011;25019;42.626;23.380;2022-09-09T05:29:10;6.20;;;5.70;;
39300;SDS011;25019;42.626;23.380;2022-09-09T05:31:35;7.63;;;5.60;;
39300;SDS011;25019;42.626;23.380;2022-09-09T05:34:07;6.83;;;5.93;;
39300;SDS011;25019;42.626;23.380;2022-09-09T05:36:33;8.30;;;6.43;;
39300;SDS011;25019;42.626;23.380;2022-09-09T05:38:59;7.87;;;6.03;;
39300;SDS011;25019;42.626;23.380;2022-09-09T05:41:27;7.00;;;5.50;;
39300;SDS011;25019;42.626;23.380;2022-09-09T05:43:56;8.13;;;5.70;;
39300;SDS011;25019;42.626;23.380;2022-09-09T05:46:22;7.03;;;5.23;;
39300;SDS011;25019;42.626;23.380;2022-09-09T05:48:51;6.30;;;5.10;;
39300;SDS011;25019;42.626;23.380;2022-09-09T05:51:22;7.33;;;5.00;;
39300;SDS011;25019;42.626;23.380;2022-09-09T05:53:50;10.07;;;5.73;;
39300;SDS011;25019;42.626;23.380;2022-09-09T05:56:22;7.67;;;5.77;;
39300;SDS011;25019;42.626;23.380;2022-09-09T05:58:51;7.80;;;5.73;;
39300;SDS011;25019;42.626;23.380;2022-09-09T06:01:20;7.87;;;5.30;;
39300;SDS011;25019;42.626;23.380;2022-09-09T06:03:55;7.07;;;5.30;;
39300;SDS011;25019;42.626;23.380;2022-09-09T06:06:23;8.83;;;5.53;;
39300;SDS011;25019;42.626;23.380;2022-09-09T06:08:53;9.00;;;6.17;;
39300;SDS011;25019;42.626;23.380;2022-09-09T06:11:25;6.47;;;5.40;;
39300;SDS011;25019;42.626;23.380;2022-09-09T06:13:58;7.87;;;5.53;;
39300;SDS011;25019;42.626;23.380;2022-09-09T06:16:27;5.90;;;5.40;;
39300;SDS011;25019;42.626;23.380;2022-09-09T06:18:54;7.17;;;6.03;;
39300;SDS011;25019;42.626;23.380;2022-09-09T06:21:26;6.80;;;5.30;;
39300;SDS011;25019;42.626;23.380;2022-09-09T06:23:54;6.97;;;6.27;;
39300;SDS011;25019;42.626;23.380;2022-09-09T06:26:21;7.87;;;6.03;;
39300;SDS011;25019;42.626;23.380;2022-09-09T06:29:01;8.30;;;6.30;;
39300;SDS011;25019;42.626;23.380;2022-09-09T06:31:29;7.90;;;5.97;;
39300;SDS011;25019;42.626;23.380;2022-09-09T06:34:01;5.60;;;5.10;;
39300;SDS011;25019;42.626;23.380;2022-09-09T06:36:29;6.43;;;5.83;;
39300;SDS011;25019;42.626;23.380;2022-09-09T06:38:57;8.67;;;5.80;;
39300;SDS011;25019;42.626;23.380;2022-09-09T06:41:26;6.90;;;5.90;;
39300;SDS011;25019;42.626;23.380;2022-09-09T06:43:55;7.70;;;5.53;;
39300;SDS011;25019;42.626;23.380;2022-09-09T06:46:29;8.40;;;6.13;;
39300;SDS011;25019;42.626;23.380;2022-09-09T06:48:58;8.93;;;6.03;;
39300;SDS011;25019;42.626;23.380;2022-09-09T06:51:31;7.13;;;5.90;;
39300;SDS011;25019;42.626;23.380;2022-09-09T06:54:02;7.07;;;5.40;;
39300;SDS011;25019;42.626;23.380;2022-09-09T06:56:33;6.83;;;5.33;;
39300;SDS011;25019;42.626;23.380;2022-09-09T06:59:10;6.47;;;5.20;;
39300;SDS011;25019;42.626;23.380;2022-09-09T07:01:38;6.57;;;5.33;;
39300;SDS011;25019;42.626;23.380;2022-09-09T07:04:15;5.87;;;5.33;;
39300;SDS011;25019;42.626;23.380;2022-09-09T07:06:43;9.63;;;5.67;;
39300;SDS011;25019;42.626;23.380;2022-09-09T07:09:15;6.23;;;5.40;;
39300;SDS011;25019;42.626;23.380;2022-09-09T07:11:48;10.60;;;5.57;;
39300;SDS011;25019;42.626;23.380;2022-09-09T07:14:20;6.97;;;6.07;;
39300;SDS011;25019;42.626;23.380;2022-09-09T07:16:51;6.20;;;5.60;;
39300;SDS011;25019;42.626;23.380;2022-09-09T07:19:18;6.40;;;5.80;;
39300;SDS011;25019;42.626;23.380;2022-09-09T07:21:46;7.07;;;6.00;;
39300;SDS011;25019;42.626;23.380;2022-09-09T07:24:16;6.87;;;5.90;;
39300;SDS011;25019;42.626;23.380;2022-09-09T07:26:42;6.63;;;5.57;;
39300;SDS011;25019;42.626;23.380;2022-09-09T07:29:10;7.97;;;5.87;;
39300;SDS011;25019;42.626;23.380;2022-09-09T07:31:39;6.83;;;6.07;;
39300;SDS011;25019;42.626;23.380;2022-09-09T07:34:11;7.77;;;6.20;;
39300;SDS011;25019;42.626;23.380;2022-09-09T07:36:39;7.87;;;5.93;;
39300;SDS011;25019;42.626;23.380;2022-09-09T07:39:09;7.67;;;5.80;;
39300;SDS011;25019;42.626;23.380;2022-09-09T07:41:40;16.70;;;7.83;;
39300;SDS011;25019;42.626;23.380;2022-09-09T07:44:10;8.23;;;5.93;;
39300;SDS011;25019;42.626;23.380;2022-09-09T07:46:39;12.17;;;7.90;;
39300;SDS011;25019;42.626;23.380;2022-09-09T07:49:08;10.80;;;6.60;;
39300;SDS011;25019;42.626;23.380;2022-09-09T07:51:36;12.70;;;6.57;;
39300;SDS011;25019;42.626;23.380;2022-09-09T07:54:05;9.20;;;6.67;;
39300;SDS011;25019;42.626;23.380;2022-09-09T07:56:33;9.23;;;6.80;;
39300;SDS011;25019;42.626;23.380;2022-09-09T07:59:00;9.20;;;6.20;;
39300;SDS011;25019;42.626;23.380;2022-09-09T08:01:34;9.80;;;6.40;;
39300;SDS011;25019;42.626;23.380;2022-09-09T08:04:07;8.70;;;6.03;;
39300;SDS011;25019;42.626;23.380;2022-09-09T08:06:36;8.57;;;5.40;;
39300;SDS011;25019;42.626;23.380;2022-09-09T08:09:04;8.73;;;5.97;;
39300;SDS011;25019;42.626;23.380;2022-09-09T08:11:31;7.80;;;5.80;;
39300;SDS011;25019;42.626;23.380;2022-09-09T08:13:59;6.97;;;5.90;;
39300;SDS011;25019;42.626;23.380;2022-09-09T08:16:27;8.23;;;6.07;;
39300;SDS011;25019;42.626;23.380;2022-09-09T08:18:56;10.60;;;6.47;;
39300;SDS011;25019;42.626;23.380;2022-09-09T08:21:23;7.67;;;5.63;;
39300;SDS011;25019;42.626;23.380;2022-09-09T08:23:54;8.77;;;5.70;;
39300;SDS011;25019;42.626;23.380;2022-09-09T08:26:22;10.20;;;5.33;;
39300;SDS011;25019;42.626;23.380;2022-09-09T08:28:53;9.43;;;5.77;;
39300;SDS011;25019;42.626;23.380;2022-09-09T08:31:26;10.47;;;5.97;;
39300;SDS011;25019;42.626;23.380;2022-09-09T08:33:57;6.03;;;5.43;;
39300;SDS011;25019;42.626;23.380;2022-09-09T08:36:30;12.00;;;6.23;;
39300;SDS011;25019;42.626;23.380;2022-09-09T08:39:01;8.47;;;5.00;;
39300;SDS011;25019;42.626;23.380;2022-09-09T08:58:22;5.87;;;5.03;;
39300;SDS011;25019;42.626;23.380;2022-09-09T09:06:25;8.77;;;5.20;;
39300;SDS011;25019;42.626;23.380;2022-09-09T09:09:12;7.93;;;5.00;;
39300;SDS011;25019;42.626;23.380;2022-09-09T09:12:23;10.23;;;5.60;;
39300;SDS011;25019;42.626;23.380;2022-09-09T09:14:54;5.83;;;4.67;;
39300;SDS011;25019;42.626;23.380;2022-09-09T09:17:25;8.47;;;5.03;;
39300;SDS011;25019;42.626;23.380;2022-09-09T09:19:53;5.73;;;4.57;;
39300;SDS011;25019;42.626;23.380;2022-09-09T09:22:22;5.73;;;4.70;;
39300;SDS011;25019;42.626;23.380;2022-09-09T09:25:11;8.37;;;5.20;;
39300;SDS011;25019;42.626;23.380;2022-09-09T09:30:17;7.77;;;5.07;;
39300;SDS011;25019;42.626;23.380;2022-09-09T09:33:28;7.20;;;5.10;;
39300;SDS011;25019;42.626;23.380;2022-09-09T09:35:42;6.87;;;5.03;;
39300;SDS011;25019;42.626;23.380;2022-09-09T09:38:15;5.33;;;4.80;;
39300;SDS011;25019;42.626;23.380;2022-09-09T09:40:56;8.00;;;4.67;;
39300;SDS011;25019;42.626;23.380;2022-09-09T09:43:28;7.23;;;4.80;;
39300;SDS011;25019;42.626;23.380;2022-09-09T09:45:56;7.93;;;5.20;;
39300;SDS011;25019;42.626;23.380;2022-09-09T09:48:24;7.00;;;5.00;;
39300;SDS011;25019;42.626;23.380;2022-09-09T09:51:00;5.60;;;4.80;;
39300;SDS011;25019;42.626;23.380;2022-09-09T09:53:36;6.60;;;5.70;;
39300;SDS011;25019;42.626;23.380;2022-09-09T09:56:08;8.07;;;5.00;;
39300;SDS011;25019;42.626;23.380;2022-09-09T10:03:50;9.07;;;4.80;;
39300;SDS011;25019;42.626;23.380;2022-09-09T10:06:28;9.63;;;5.23;;
39300;SDS011;25019;42.626;23.380;2022-09-09T10:08:58;6.77;;;4.70;;
39300;SDS011;25019;42.626;23.380;2022-09-09T10:19:47;8.83;;;5.40;;
39300;SDS011;25019;42.626;23.380;2022-09-09T10:22:27;9.97;;;5.60;;
39300;SDS011;25019;42.626;23.380;2022-09-09T10:25:12;10.70;;;5.97;;
39300;SDS011;25019;42.626;23.380;2022-09-09T10:30:19;9.00;;;5.70;;
39300;SDS011;25019;42.626;23.380;2022-09-09T10:46:29;7.83;;;5.93;;
39300;SDS011;25019;42.626;23.380;2022-09-09T10:52:01;7.53;;;5.90;;
39300;SDS011;25019;42.626;23.380;2022-09-09T10:57:42;7.80;;;6.37;;
39300;SDS011;25019;42.626;23.380;2022-09-09T11:00:05;12.17;;;5.93;;
39300;SDS011;25019;42.626;23.380;2022-09-09T11:02:39;9.77;;;5.97;;
39300;SDS011;25019;42.626;23.380;2022-09-09T11:05:14;9.40;;;6.33;;
39300;SDS011;25019;42.626;23.380;2022-09-09T11:07:47;9.83;;;6.57;;
39300;SDS011;25019;42.626;23.380;2022-09-09T11:10:23;10.60;;;6.60;;
39300;SDS011;25019;42.626;23.380;2022-09-09T11:12:57;20.77;;;8.97;;
39300;SDS011;25019;42.626;23.380;2022-09-09T11:15:36;13.97;;;6.93;;
39300;SDS011;25019;42.626;23.380;2022-09-09T11:18:09;11.13;;;7.47;;
39300;SDS011;25019;42.626;23.380;2022-09-09T11:20:44;12.27;;;7.00;;
39300;SDS011;25019;42.626;23.380;2022-09-09T11:23:17;11.80;;;6.27;;
39300;SDS011;25019;42.626;23.380;2022-09-09T11:25:59;10.13;;;6.50;;
39300;SDS011;25019;42.626;23.380;2022-09-09T11:32:05;10.27;;;6.40;;
39300;SDS011;25019;42.626;23.380;2022-09-09T11:42:48;8.77;;;6.33;;
39300;SDS011;25019;42.626;23.380;2022-09-09T11:45:22;8.80;;;6.47;;
39300;SDS011;25019;42.626;23.380;2022-09-09T11:47:55;10.60;;;6.77;;
39300;SDS011;25019;42.626;23.380;2022-09-09T11:52:48;8.30;;;6.03;;
39300;SDS011;25019;42.626;23.380;2022-09-09T11:55:28;8.30;;;6.27;;
39300;SDS011;25019;42.626;23.380;2022-09-09T11:58:01;8.67;;;5.97;;
39300;SDS011;25019;42.626;23.380;2022-09-09T12:03:00;10.00;;;6.53;;
39300;SDS011;25019;42.626;23.380;2022-09-09T12:05:35;7.10;;;6.13;;
39300;SDS011;25019;42.626;23.380;2022-09-09T12:08:04;12.70;;;6.70;;
39300;SDS011;25019;42.626;23.380;2022-09-09T12:13:20;9.13;;;6.30;;
39300;SDS011;25019;42.626;23.380;2022-09-09T12:15:49;8.10;;;5.90;;
39300;SDS011;25019;42.626;23.380;2022-09-09T12:18:21;9.67;;;6.37;;
39300;SDS011;25019;42.626;23.380;2022-09-09T12:20:54;7.23;;;5.80;;
39300;SDS011;25019;42.626;23.380;2022-09-09T12:23:50;7.63;;;6.13;;
39300;SDS011;25019;42.626;23.380;2022-09-09T12:34:16;8.57;;;6.13;;
39300;SDS011;25019;42.626;23.380;2022-09-09T12:36:58;8.17;;;6.50;;
39300;SDS011;25019;42.626;23.380;2022-09-09T12:39:36;10.20;;;6.33;;
39300;SDS011;25019;42.626;23.380;2022-09-09T12:42:16;12.33;;;6.80;;
39300;SDS011;25019;42.626;23.380;2022-09-09T12:47:19;14.50;;;6.53;;
39300;SDS011;25019;42.626;23.380;2022-09-09T12:49:48;14.73;;;8.33;;
39300;SDS011;25019;42.626;23.380;2022-09-09T12:54:51;9.80;;;6.47;;
39300;SDS011;25019;42.626;23.380;2022-09-09T12:57:19;9.63;;;7.07;;
39300;SDS011;25019;42.626;23.380;2022-09-09T12:59:47;9.57;;;6.87;;
39300;SDS011;25019;42.626;23.380;2022-09-09T13:02:23;10.47;;;6.30;;
39300;SDS011;25019;42.626;23.380;2022-09-09T13:04:53;9.97;;;6.37;;
39300;SDS011;25019;42.626;23.380;2022-09-09T13:07:20;11.57;;;6.70;;
39300;SDS011;25019;42.626;23.380;2022-09-09T13:09:47;9.17;;;6.83;;
39300;SDS011;25019;42.626;23.380;2022-09-09T13:12:15;8.20;;;6.13;;
39300;SDS011;25019;42.626;23.380;2022-09-09T13:14:44;10.33;;;6.67;;
39300;SDS011;25019;42.626;23.380;2022-09-09T13:17:26;8.33;;;6.87;;
39300;SDS011;25019;42.626;23.380;2022-09-09T13:19:55;11.17;;;6.63;;
39300;SDS011;25019;42.626;23.380;2022-09-09T13:22:31;7.33;;;6.17;;
39300;SDS011;25019;42.626;23.380;2022-09-09T13:25:24;10.23;;;6.73;;
39300;SDS011;25019;42.626;23.380;2022-09-09T13:30:32;9.60;;;6.50;;
39300;SDS011;25019;42.626;23.380;2022-09-09T13:38:14;15.10;;;7.07;;
39300;SDS011;25019;42.626;23.380;2022-09-09T13:40:51;13.67;;;7.00;;
39300;SDS011;25019;42.626;23.380;2022-09-09T13:43:21;11.37;;;6.97;;
39300;SDS011;25019;42.626;23.380;2022-09-09T13:45:55;14.00;;;7.33;;
39300;SDS011;25019;42.626;23.380;2022-09-09T13:48:23;13.47;;;6.63;;
39300;SDS011;25019;42.626;23.380;2022-09-09T13:50:59;10.03;;;5.90;;
39300;SDS011;25019;42.626;23.380;2022-09-09T13:53:26;14.73;;;6.47;;
39300;SDS011;25019;42.626;23.380;2022-09-09T13:55:53;11.70;;;6.33;;
39300;SDS011;25019;42.626;23.380;2022-09-09T13:58:18;13.43;;;6.97;;
39300;SDS011;25019;42.626;23.380;2022-09-09T14:00:45;9.63;;;5.93;;
39300;SDS011;25019;42.626;23.380;2022-09-09T14:03:11;10.17;;;6.70;;
39300;SDS011;25019;42.626;23.380;2022-09-09T14:05:37;12.10;;;6.43;;
39300;SDS011;25019;42.626;23.380;2022-09-09T14:08:04;9.63;;;6.60;;
39300;SDS011;25019;42.626;23.380;2022-09-09T14:10:30;8.23;;;6.00;;
39300;SDS011;25019;42.626;23.380;2022-09-09T14:12:56;10.07;;;6.53;;
39300;SDS011;25019;42.626;23.380;2022-09-09T14:15:22;10.63;;;6.27;;
39300;SDS011;25019;42.626;23.380;2022-09-09T14:17:47;11.70;;;6.30;;
39300;SDS011;25019;42.626;23.380;2022-09-09T14:20:13;10.80;;;6.07;;
39300;SDS011;25019;42.626;23.380;2022-09-09T14:22:40;11.67;;;6.83;;
39300;SDS011;25019;42.626;23.380;2022-09-09T14:25:07;11.70;;;6.30;;
39300;SDS011;25019;42.626;23.380;2022-09-09T14:27:33;8.80;;;6.13;;
39300;SDS011;25019;42.626;23.380;2022-09-09T14:29:59;8.47;;;6.47;;
39300;SDS011;25019;42.626;23.380;2022-09-09T14:32:26;12.27;;;5.73;;
39300;SDS011;25019;42.626;23.380;2022-09-09T14:34:52;11.13;;;6.13;;
39300;SDS011;25019;42.626;23.380;2022-09-09T14:37:18;9.30;;;6.20;;
39300;SDS011;25019;42.626;23.380;2022-09-09T14:39:44;10.93;;;6.10;;
39300;SDS011;25019;42.626;23.380;2022-09-09T14:42:10;12.53;;;7.03;;
39300;SDS011;25019;42.626;23.380;2022-09-09T14:44:36;13.60;;;6.87;;
39300;SDS011;25019;42.626;23.380;2022-09-09T14:47:04;8.23;;;6.23;;
39300;SDS011;25019;42.626;23.380;2022-09-09T14:49:36;10.27;;;6.47;;
39300;SDS011;25019;42.626;23.380;2022-09-09T14:52:02;9.63;;;6.50;;
39300;SDS011;25019;42.626;23.380;2022-09-09T14:54:29;12.70;;;6.60;;
39300;SDS011;25019;42.626;23.380;2022-09-09T14:56:55;13.37;;;6.97;;
39300;SDS011;25019;42.626;23.380;2022-09-09T14:59:21;8.73;;;6.57;;
39300;SDS011;25019;42.626;23.380;2022-09-09T15:01:47;10.33;;;6.77;;
39300;SDS011;25019;42.626;23.380;2022-09-09T15:04:13;12.50;;;6.13;;
39300;SDS011;25019;42.626;23.380;2022-09-09T15:06:45;9.20;;;6.40;;
39300;SDS011;25019;42.626;23.380;2022-09-09T15:09:13;8.90;;;6.83;;
39300;SDS011;25019;42.626;23.380;2022-09-09T15:11:40;16.23;;;7.83;;
39300;SDS011;25019;42.626;23.380;2022-09-09T15:14:06;11.27;;;6.47;;
39300;SDS011;25019;42.626;23.380;2022-09-09T15:16:34;9.47;;;6.30;;
39300;SDS011;25019;42.626;23.380;2022-09-09T15:19:01;10.10;;;6.83;;
39300;SDS011;25019;42.626;23.380;2022-09-09T15:21:28;11.63;;;7.07;;
39300;SDS011;25019;42.626;23.380;2022-09-09T15:23:56;10.33;;;6.67;;
39300;SDS011;25019;42.626;23.380;2022-09-09T15:26:22;10.07;;;6.83;;
39300;SDS011;25019;42.626;23.380;2022-09-09T15:28:49;13.37;;;7.40;;
39300;SDS011;25019;42.626;23.380;2022-09-09T15:33:54;12.43;;;7.47;;
39300;SDS011;25019;42.626;23.380;2022-09-09T15:38:57;10.57;;;7.50;;
39300;SDS011;25019;42.626;23.380;2022-09-09T15:41:24;11.33;;;7.80;;
39300;SDS011;25019;42.626;23.380;2022-09-09T15:43:50;8.57;;;7.67;;
39300;SDS011;25019;42.626;23.380;2022-09-09T15:48:46;11.70;;;8.20;;
39300;SDS011;25019;42.626;23.380;2022-09-09T15:51:11;15.77;;;8.40;;
39300;SDS011;25019;42.626;23.380;2022-09-09T15:53:38;12.70;;;7.57;;
39300;SDS011;25019;42.626;23.380;2022-09-09T15:56:05;11.10;;;7.50;;
39300;SDS011;25019;42.626;23.380;2022-09-09T15:58:34;14.57;;;9.20;;
39300;SDS011;25019;42.626;23.380;2022-09-09T16:01:04;12.43;;;7.63;;
39300;SDS011;25019;42.626;23.380;2022-09-09T16:03:35;10.83;;;7.70;;
39300;SDS011;25019;42.626;23.380;2022-09-09T16:06:07;9.57;;;7.30;;
39300;SDS011;25019;42.626;23.380;2022-09-09T16:08:34;14.53;;;7.47;;
39300;SDS011;25019;42.626;23.380;2022-09-09T16:11:04;10.10;;;7.30;;
39300;SDS011;25019;42.626;23.380;2022-09-09T16:13:37;12.70;;;7.40;;
39300;SDS011;25019;42.626;23.380;2022-09-09T16:16:07;12.83;;;8.43;;
39300;SDS011;25019;42.626;23.380;2022-09-09T16:18:39;12.73;;;8.87;;
39300;SDS011;25019;42.626;23.380;2022-09-09T16:21:07;12.20;;;8.53;;
39300;SDS011;25019;42.626;23.380;2022-09-09T16:23:33;14.17;;;8.70;;
39300;SDS011;25019;42.626;23.380;2022-09-09T16:26:00;15.53;;;8.67;;
39300;SDS011;25019;42.626;23.380;2022-09-09T16:28:26;12.17;;;8.87;;
39300;SDS011;25019;42.626;23.380;2022-09-09T16:30:53;15.17;;;8.63;;
39300;SDS011;25019;42.626;23.380;2022-09-09T16:33:19;12.87;;;8.60;;
39300;SDS011;25019;42.626;23.380;2022-09-09T16:35:45;15.07;;;9.63;;
39300;SDS011;25019;42.626;23.380;2022-09-09T16:38:11;12.17;;;9.77;;
39300;SDS011;25019;42.626;23.380;2022-09-09T16:40:37;17.37;;;10.50;;
39300;SDS011;25019;42.626;23.380;2022-09-09T16:43:04;16.13;;;10.03;;
39300;SDS011;25019;42.626;23.380;2022-09-09T16:45:30;19.57;;;12.00;;
39300;SDS011;25019;42.626;23.380;2022-09-09T16:47:57;17.30;;;11.07;;
39300;SDS011;25019;42.626;23.380;2022-09-09T16:50:24;13.73;;;10.10;;
39300;SDS011;25019;42.626;23.380;2022-09-09T16:52:51;14.03;;;10.30;;
39300;SDS011;25019;42.626;23.380;2022-09-09T16:55:17;14.80;;;10.53;;
39300;SDS011;25019;42.626;23.380;2022-09-09T16:57:46;12.20;;;10.90;;
39300;SDS011;25019;42.626;23.380;2022-09-09T17:00:14;12.17;;;10.30;;
39300;SDS011;25019;42.626;23.380;2022-09-09T17:02:43;13.77;;;9.50;;
39300;SDS011;25019;42.626;23.380;2022-09-09T17:05:10;15.43;;;10.17;;
39300;SDS011;25019;42.626;23.380;2022-09-09T17:07:37;12.77;;;10.70;;
39300;SDS011;25019;42.626;23.380;2022-09-09T17:10:04;15.00;;;11.10;;
39300;SDS011;25019;42.626;23.380;2022-09-09T17:12:31;16.07;;;10.27;;